Time;durP1;ratioP1;P1;durP2;ratioP2;P2;SDS_P1;SDS_P2;PMS_P1;PMS_P2;Temp;Humidity;BMP_temperature;BMP_pressure;BME280_temperature;BME280_humidity;BME280_pressure;Samples;Min_cycle;Max_cycle;Signal;HPM_P1;HPM_P2
2023/08/27 00:00:51;;;;;;;;;;;;;;;29.43;62.50;101409.55;106795;1259;25316;-50
2023/08/27 00:03:17;;;;;;;;;;;;;;;29.44;62.40;101410.20;106721;1266;25315;-56
2023/08/27 00:05:45;;;;;;;;;;;;;;;29.44;62.33;101410.57;106826;1259;25326;-50
2023/08/27 00:08:12;;;;;;;;;;;;;;;29.43;62.21;101409.39;106767;1269;25395;-51
2023/08/27 00:10:39;;;;;;;;;;;;;;;29.42;62.10;101409.48;106829;1267;25315;-51
2023/08/27 00:13:06;;;;;;;;;;;;;;;29.39;62.04;101408.52;106743;1259;25471;-50
2023/08/27 00:15:33;;;;;;;;;;;;;;;29.52;61.53;101410.32;106736;1262;25386;-50
2023/08/27 00:17:59;;;;;;;;;;;;;;;30.51;58.53;101406.65;106772;1269;25380;-50
2023/08/27 00:20:26;;;;;;;;;;;;;;;30.67;57.55;101407.98;106823;1262;22512;-50
2023/08/27 00:22:53;;;;;;;;;;;;;;;30.69;57.49;101407.88;106783;1259;25555;-51
2023/08/27 00:25:20;;;;;;;;;;;;;;;30.70;57.32;101410.30;106839;1259;24165;-50
2023/08/27 00:27:46;;;;;;;;;;;;;;;30.65;57.28;101411.94;106839;1264;22614;-51
2023/08/27 00:30:13;;;;;;;;;;;;;;;30.65;57.31;101409.57;106746;1269;25316;-50
2023/08/27 00:32:40;;;;;;;;;;;;;;;30.62;57.32;101410.39;106785;1263;25334;-55
2023/08/27 00:35:12;;;;;;;;;;;;;;;30.61;57.37;101407.06;106544;1272;401388;-50
2023/08/27 00:37:39;;;;;;;;;;;;;;;30.61;57.32;101412.69;106804;1260;24185;-51
2023/08/27 00:40:07;;;;;;;;;;;;;;;30.59;57.42;101411.90;106758;1269;25325;-50
2023/08/27 00:42:36;;;;;;;;;;;;;;;30.59;57.44;101411.79;106821;1266;22513;-49
2023/08/27 00:45:03;;;;;;;;;;;;;;;30.57;57.41;101413.21;106906;1267;25306;-52
2023/08/27 00:47:35;;;;;;;;;;;;;;;30.57;57.44;101415.57;106757;1268;25315;-51
2023/08/27 00:50:02;;;;;;;;;;;;;;;30.56;57.34;101417.04;106879;1267;25221;-51
2023/08/27 00:52:29;;;;;;;;;;;;;;;30.55;57.40;101415.34;106654;1262;25315;-55
2023/08/27 00:54:56;;;;;;;;;;;;;;;30.57;57.25;101417.85;106842;1269;25427;-53
2023/08/27 00:57:24;;;;;;;;;;;;;;;30.55;57.26;101414.60;106703;1265;25341;-50
2023/08/27 00:59:52;;;;;;;;;;;;;;;30.54;57.15;101416.19;106910;1269;25316;-54
2023/08/27 01:02:19;;;;;;;;;;;;;;;30.52;57.20;101416.47;106806;1269;25353;-50
2023/08/27 01:04:46;;;;;;;;;;;;;;;30.53;57.11;101419.80;106483;1265;25427;-51
2023/08/27 01:07:18;;;;;;;;;;;;;;;30.51;57.03;101418.55;106487;1269;25327;-56
2023/08/27 01:10:14;;;;;;;;;;;;;;;30.52;57.11;101418.85;106796;1267;24275;-50
2023/08/27 01:13:01;;;;;;;;;;;;;;;30.50;57.14;101418.13;106339;1265;25318;-50
2023/08/27 01:15:29;;;;;;;;;;;;;;;30.47;57.07;101416.94;106321;1271;25260;-50
2023/08/27 01:17:56;;;;;;;;;;;;;;;30.45;57.24;101418.63;106287;1283;24202;-55
2023/08/27 01:20:23;;;;;;;;;;;;;;;30.50;57.03;101417.81;106353;1278;25301;-51
2023/08/27 01:22:50;;;;;;;;;;;;;;;30.52;56.89;101414.52;106372;1270;22514;-50
2023/08/27 01:25:17;;;;;;;;;;;;;;;30.51;56.99;101415.53;106330;1266;25383;-50
2023/08/27 01:27:50;;;;;;;;;;;;;;;30.49;56.89;101411.42;106308;1274;25602;-55
2023/08/27 01:30:19;;;;;;;;;;;;;;;30.48;56.88;101411.38;106373;1271;24518;-51
2023/08/27 01:32:59;;;;;;;;;;;;;;;30.45;56.64;101412.37;106317;1268;25354;-53
2023/08/27 01:35:26;;;;;;;;;;;;;;;30.45;56.60;101417.48;106371;1267;22520;-49
2023/08/27 01:37:53;;;;;;;;;;;;;;;30.45;56.46;101419.15;106389;1267;25394;-51
2023/08/27 01:40:20;;;;;;;;;;;;;;;30.43;56.39;101415.58;106380;1268;25402;-54
2023/08/27 01:42:47;;;;;;;;;;;;;;;30.39;56.33;101408.09;106379;1278;25341;-51
2023/08/27 01:45:14;;;;;;;;;;;;;;;30.36;56.43;101403.04;106364;1274;22658;-50
2023/08/27 01:47:41;;;;;;;;;;;;;;;30.37;56.29;101398.44;106305;1274;22610;-51
2023/08/27 01:50:08;;;;;;;;;;;;;;;30.36;56.31;101392.13;106798;1275;25489;-55
2023/08/27 01:52:35;;;;;;;;;;;;;;;30.33;56.28;101394.20;106807;1269;25374;-49
2023/08/27 01:55:06;;;;;;;;;;;;;;;30.29;56.30;101397.37;106785;1269;25399;-50
2023/08/27 01:57:33;;;;;;;;;;;;;;;30.27;56.32;101397.07;106673;1275;25366;-51
2023/08/27 02:00:00;;;;;;;;;;;;;;;30.25;56.38;101400.11;106866;1269;25305;-57
2023/08/27 02:02:27;;;;;;;;;;;;;;;30.19;56.46;101398.00;106819;1266;25191;-52
2023/08/27 02:04:55;;;;;;;;;;;;;;;30.15;56.59;101397.48;106872;1271;22505;-55
2023/08/27 02:07:23;;;;;;;;;;;;;;;30.11;56.63;101398.02;106734;1269;24219;-50
2023/08/27 02:09:50;;;;;;;;;;;;;;;30.09;56.77;101396.83;106758;1273;25305;-52
2023/08/27 02:12:17;;;;;;;;;;;;;;;30.02;57.01;101392.40;106753;1269;25469;-52
2023/08/27 02:14:44;;;;;;;;;;;;;;;29.98;57.12;101395.66;106685;1259;23328;-50
2023/08/27 02:17:11;;;;;;;;;;;;;;;30.02;56.98;101391.89;106532;1278;25333;-52
2023/08/27 02:19:38;;;;;;;;;;;;;;;30.03;56.90;101397.15;106718;1272;25341;-56
2023/08/27 02:22:05;;;;;;;;;;;;;;;30.03;57.01;101397.23;106583;1267;25312;-50
2023/08/27 02:24:32;;;;;;;;;;;;;;;30.00;57.05;101398.02;106492;1266;25463;-52
2023/08/27 02:26:59;;;;;;;;;;;;;;;29.98;57.24;101394.61;106490;1269;24220;-51
2023/08/27 02:29:26;;;;;;;;;;;;;;;29.98;57.38;101396.09;106861;1266;25324;-52
2023/08/27 02:31:52;;;;;;;;;;;;;;;29.97;57.51;101391.64;106527;1276;25392;-55
2023/08/27 02:34:20;;;;;;;;;;;;;;;29.97;57.32;101398.66;106739;1270;25350;-50
2023/08/27 02:36:46;;;;;;;;;;;;;;;29.97;57.39;101398.63;106697;1270;24178;-52
2023/08/27 02:39:13;;;;;;;;;;;;;;;29.97;57.28;101393.85;106768;1267;22517;-50
2023/08/27 02:41:40;;;;;;;;;;;;;;;29.96;57.29;101398.20;106874;1269;25373;-51
2023/08/27 02:44:07;;;;;;;;;;;;;;;29.96;57.43;101393.58;106825;1262;25343;-51
2023/08/27 02:46:34;;;;;;;;;;;;;;;29.94;57.28;101396.56;106732;1269;25306;-54
2023/08/27 02:49:00;;;;;;;;;;;;;;;29.96;57.31;101396.27;106689;1272;25361;-50
2023/08/27 02:51:27;;;;;;;;;;;;;;;29.96;57.32;101399.27;106747;1268;25382;-53
2023/08/27 02:53:55;;;;;;;;;;;;;;;29.93;57.31;101398.83;106573;1270;25316;-51
2023/08/27 02:56:22;;;;;;;;;;;;;;;29.93;57.25;101397.23;106865;1259;25380;-52
2023/08/27 02:58:49;;;;;;;;;;;;;;;29.91;57.30;101394.71;106778;1269;23423;-57
2023/08/27 03:01:18;;;;;;;;;;;;;;;29.91;57.27;101399.95;106736;1263;24270;-54
2023/08/27 03:03:46;;;;;;;;;;;;;;;29.90;57.20;101403.63;106796;1262;25316;-50
2023/08/27 03:06:13;;;;;;;;;;;;;;;29.88;57.06;101403.43;106743;1269;25427;-51
2023/08/27 03:08:40;;;;;;;;;;;;;;;29.86;56.95;101400.55;106788;1259;24297;-53
2023/08/27 03:11:07;;;;;;;;;;;;;;;29.85;57.06;101396.97;106947;1269;25352;-52
2023/08/27 03:13:34;;;;;;;;;;;;;;;29.84;57.02;101396.13;106793;1259;25340;-51
2023/08/27 03:16:00;;;;;;;;;;;;;;;29.83;56.98;101394.62;106859;1259;22533;-52
2023/08/27 03:18:28;;;;;;;;;;;;;;;29.81;57.06;101396.73;106678;1271;25452;-53
2023/08/27 03:20:55;;;;;;;;;;;;;;;29.82;56.89;101397.20;106752;1259;25315;-51
2023/08/27 03:23:22;;;;;;;;;;;;;;;29.83;57.03;101394.79;106764;1269;25390;-51
2023/08/27 03:25:49;;;;;;;;;;;;;;;29.86;56.98;101397.73;106787;1269;25303;-54
2023/08/27 03:28:16;;;;;;;;;;;;;;;29.87;56.99;101395.33;106781;1269;25392;-52
2023/08/27 03:30:43;;;;;;;;;;;;;;;29.85;57.05;101397.30;106855;1269;25305;-51
2023/08/27 03:33:10;;;;;;;;;;;;;;;29.83;57.15;101395.32;106763;1269;25306;-50
2023/08/27 03:35:37;;;;;;;;;;;;;;;29.82;57.13;101395.54;106802;1262;25344;-51
2023/08/27 03:38:04;;;;;;;;;;;;;;;29.82;57.31;101402.89;106864;1269;25334;-54
2023/08/27 03:40:31;;;;;;;;;;;;;;;29.83;57.20;101401.40;106896;1263;25465;-54
2023/08/27 03:42:58;;;;;;;;;;;;;;;29.84;57.30;101402.96;106775;1262;25437;-50
2023/08/27 03:45:26;;;;;;;;;;;;;;;29.84;57.26;101398.77;106801;1260;25502;-50
2023/08/27 03:47:53;;;;;;;;;;;;;;;29.85;57.38;101399.65;106846;1259;25354;-52
2023/08/27 03:50:20;;;;;;;;;;;;;;;29.85;57.44;101402.81;106826;1260;25459;-50
2023/08/27 03:52:48;;;;;;;;;;;;;;;29.89;57.31;101404.40;106784;1268;25316;-51
2023/08/27 03:55:16;;;;;;;;;;;;;;;29.92;57.26;101407.21;106827;1269;22514;-51
2023/08/27 03:57:43;;;;;;;;;;;;;;;29.79;57.41;101404.95;106822;1269;24192;-52
2023/08/27 04:00:10;;;;;;;;;;;;;;;28.58;60.95;101406.23;106640;1262;25324;-50
2023/08/27 04:02:43;;;;;;;;;;;;;;;28.34;62.13;101411.03;106760;1268;23963;-52
2023/08/27 04:05:11;;;;;;;;;;;;;;;28.28;62.54;101411.87;106694;1271;25343;-51
2023/08/27 04:07:38;;;;;;;;;;;;;;;28.25;62.85;101412.30;106750;1267;25259;-52
2023/08/27 04:10:05;;;;;;;;;;;;;;;28.23;63.07;101414.45;106584;1271;25410;-51
2023/08/27 04:12:32;;;;;;;;;;;;;;;28.22;63.33;101416.33;106815;1266;24204;-54
2023/08/27 04:15:02;;;;;;;;;;;;;;;28.24;63.33;101416.34;106675;1263;25370;-51
2023/08/27 04:17:30;;;;;;;;;;;;;;;28.23;63.51;101412.31;106760;1262;25356;-52
2023/08/27 04:19:57;;;;;;;;;;;;;;;28.22;63.64;101410.59;106787;1267;22511;-52
2023/08/27 04:22:23;;;;;;;;;;;;;;;28.21;63.84;101406.41;106744;1268;25451;-50
2023/08/27 04:24:50;;;;;;;;;;;;;;;28.25;63.80;101407.89;106383;1269;25330;-55
2023/08/27 04:27:17;;;;;;;;;;;;;;;28.24;63.87;101404.73;106743;1278;25321;-54
2023/08/27 04:29:45;;;;;;;;;;;;;;;28.24;64.10;101399.92;106645;1275;25427;-52
2023/08/27 04:32:11;;;;;;;;;;;;;;;28.28;64.16;101399.06;106811;1262;25493;-52
2023/08/27 04:34:38;;;;;;;;;;;;;;;28.29;64.22;101393.76;106638;1271;25377;-52
2023/08/27 04:37:05;;;;;;;;;;;;;;;28.30;64.40;101392.94;106553;1270;25334;-52
2023/08/27 04:39:32;;;;;;;;;;;;;;;28.32;64.52;101392.61;106735;1267;22510;-51
2023/08/27 04:41:58;;;;;;;;;;;;;;;28.36;64.48;101393.35;106656;1267;24325;-50
2023/08/27 04:44:26;;;;;;;;;;;;;;;28.37;64.71;101395.68;106726;1259;22650;-50
2023/08/27 04:46:53;;;;;;;;;;;;;;;28.42;64.55;101396.56;106343;1271;25316;-51
2023/08/27 04:49:24;;;;;;;;;;;;;;;28.45;64.52;101398.08;106310;1270;24349;-49
2023/08/27 04:51:51;;;;;;;;;;;;;;;28.48;64.84;101397.79;106511;1269;25524;-51
2023/08/27 04:54:18;;;;;;;;;;;;;;;28.54;64.57;101397.30;106592;1269;25434;-52
2023/08/27 04:56:45;;;;;;;;;;;;;;;28.56;64.64;101398.23;106730;1269;25392;-50
2023/08/27 04:59:12;;;;;;;;;;;;;;;28.60;64.59;101399.30;106860;1269;25379;-52
2023/08/27 05:01:39;;;;;;;;;;;;;;;28.63;64.51;101395.80;106883;1259;25395;-50
2023/08/27 05:04:06;;;;;;;;;;;;;;;28.68;64.39;101400.52;106494;1278;25333;-51
2023/08/27 05:06:33;;;;;;;;;;;;;;;28.72;64.32;101400.89;106694;1266;22762;-51
2023/08/27 05:09:00;;;;;;;;;;;;;;;28.72;64.24;101401.43;106741;1269;24355;-51
2023/08/27 05:11:27;;;;;;;;;;;;;;;28.78;64.28;101405.50;106787;1269;25333;-51
2023/08/27 05:13:54;;;;;;;;;;;;;;;28.85;64.21;101409.50;106764;1269;25343;-50
2023/08/27 05:16:21;;;;;;;;;;;;;;;28.90;64.03;101404.47;106849;1259;25306;-50
2023/08/27 05:18:48;;;;;;;;;;;;;;;28.94;63.84;101405.50;106770;1272;25453;-50
2023/08/27 05:21:16;;;;;;;;;;;;;;;28.98;63.75;101405.69;106737;1263;25293;-50
2023/08/27 05:23:42;;;;;;;;;;;;;;;29.03;63.59;101406.41;106786;1264;25312;-50
2023/08/27 05:26:09;;;;;;;;;;;;;;;29.07;63.66;101403.13;106681;1259;25393;-51
2023/08/27 05:28:36;;;;;;;;;;;;;;;29.12;63.67;101400.07;106675;1273;25364;-51
2023/08/27 05:31:04;;;;;;;;;;;;;;;29.16;63.68;101399.71;106680;1273;25396;-50
2023/08/27 05:33:31;;;;;;;;;;;;;;;29.20;63.54;101399.70;106743;1268;25337;-55
2023/08/27 05:35:58;;;;;;;;;;;;;;;29.25;63.57;101402.05;106831;1269;25333;-53
2023/08/27 05:38:25;;;;;;;;;;;;;;;29.29;63.62;101404.56;106792;1275;25462;-52
2023/08/27 05:40:52;;;;;;;;;;;;;;;29.32;63.61;101402.32;106864;1259;25305;-53
2023/08/27 05:43:19;;;;;;;;;;;;;;;29.36;63.20;101401.05;106783;1259;25558;-53
2023/08/27 05:45:46;;;;;;;;;;;;;;;29.41;63.31;101403.33;106812;1275;25296;-51
2023/08/27 05:48:14;;;;;;;;;;;;;;;29.44;63.34;101401.24;106765;1269;23210;-50
2023/08/27 05:50:41;;;;;;;;;;;;;;;29.48;63.30;101403.34;106697;1270;22511;-51
2023/08/27 05:53:08;;;;;;;;;;;;;;;29.53;63.29;101405.07;106749;1268;25386;-51
2023/08/27 05:55:35;;;;;;;;;;;;;;;29.58;63.19;101399.96;106671;1269;25309;-50
2023/08/27 05:58:03;;;;;;;;;;;;;;;29.62;63.16;101401.50;106682;1269;25380;-50
2023/08/27 06:00:31;;;;;;;;;;;;;;;29.68;63.21;101401.53;106348;1272;22520;-55
2023/08/27 06:02:58;;;;;;;;;;;;;;;29.73;63.16;101403.41;106417;1272;25324;-50
2023/08/27 06:05:25;;;;;;;;;;;;;;;29.85;62.88;101403.00;106501;1263;25309;-53
2023/08/27 06:07:52;;;;;;;;;;;;;;;29.98;62.33;101394.30;106456;1267;25318;-52
2023/08/27 06:10:20;;;;;;;;;;;;;;;30.10;61.95;101393.80;106805;1269;25414;-51
2023/08/27 06:12:47;;;;;;;;;;;;;;;30.23;61.67;101395.81;106724;1262;25328;-52
2023/08/27 06:15:14;;;;;;;;;;;;;;;30.34;61.27;101399.29;106684;1263;25395;-49
2023/08/27 06:17:41;;;;;;;;;;;;;;;30.53;60.82;101395.19;106717;1269;24227;-50
2023/08/27 06:20:08;;;;;;;;;;;;;;;30.75;60.12;101394.98;106577;1269;25386;-49
2023/08/27 06:22:35;;;;;;;;;;;;;;;31.01;59.40;101393.52;106721;1262;22501;-50
2023/08/27 06:25:02;;;;;;;;;;;;;;;31.29;58.52;101394.70;106740;1264;25309;-52
2023/08/27 06:27:30;;;;;;;;;;;;;;;31.52;57.56;101395.95;106690;1270;25451;-50
2023/08/27 06:29:58;;;;;;;;;;;;;;;31.66;57.04;101394.55;106457;1279;25441;-50
2023/08/27 06:32:26;;;;;;;;;;;;;;;31.76;56.74;101389.80;106759;1262;25413;-50
2023/08/27 06:34:54;;;;;;;;;;;;;;;31.83;56.65;101390.34;106839;1273;24224;-55
2023/08/27 06:37:21;;;;;;;;;;;;;;;31.90;56.23;101389.39;106796;1272;25341;-50
2023/08/27 06:39:49;;;;;;;;;;;;;;;32.02;55.90;101389.29;106843;1270;25344;-56
2023/08/27 06:42:16;;;;;;;;;;;;;;;32.17;55.49;101388.48;106782;1259;22514;-49
2023/08/27 06:44:43;;;;;;;;;;;;;;;32.27;55.23;101389.75;106767;1273;25306;-49
2023/08/27 06:47:09;;;;;;;;;;;;;;;32.33;55.04;101388.80;106635;1278;25363;-49
2023/08/27 06:49:36;;;;;;;;;;;;;;;32.35;55.04;101381.34;106756;1263;25333;-51
2023/08/27 06:52:05;;;;;;;;;;;;;;;32.38;54.84;101381.59;106564;1272;22492;-50
2023/08/27 06:54:32;;;;;;;;;;;;;;;32.38;54.87;101376.06;106808;1259;22524;-52
2023/08/27 06:56:59;;;;;;;;;;;;;;;32.36;54.69;101376.77;106828;1269;25395;-50
2023/08/27 06:59:25;;;;;;;;;;;;;;;32.33;54.46;101383.52;106748;1272;25307;-51
2023/08/27 07:01:52;;;;;;;;;;;;;;;32.32;54.28;101380.79;106778;1269;25327;-52
2023/08/27 07:04:20;;;;;;;;;;;;;;;32.31;54.15;101376.10;106882;1271;25439;-50
2023/08/27 07:06:47;;;;;;;;;;;;;;;32.31;53.99;101368.18;106727;1271;25306;-52
2023/08/27 07:09:13;;;;;;;;;;;;;;;32.34;53.65;101371.02;106737;1276;24172;-52
2023/08/27 07:11:40;;;;;;;;;;;;;;;32.38;53.39;101371.22;106802;1270;25427;-49
2023/08/27 07:14:07;;;;;;;;;;;;;;;32.47;53.10;101374.23;106859;1263;25363;-50
2023/08/27 07:16:34;;;;;;;;;;;;;;;32.61;52.82;101373.05;106795;1270;25305;-50
2023/08/27 07:19:01;;;;;;;;;;;;;;;32.81;52.23;101372.40;106864;1263;25363;-50
2023/08/27 07:21:28;;;;;;;;;;;;;;;33.05;51.60;101368.60;106386;1278;25393;-50
2023/08/27 07:23:56;;;;;;;;;;;;;;;33.33;51.08;101373.77;106797;1271;25323;-50
2023/08/27 07:26:23;;;;;;;;;;;;;;;33.62;50.20;101369.57;106874;1265;25331;-50
2023/08/27 07:28:50;;;;;;;;;;;;;;;33.94;49.01;101370.71;106529;1272;25312;-50
2023/08/27 07:31:17;;;;;;;;;;;;;;;34.19;48.42;101366.88;106366;1274;22523;-50
2023/08/27 07:33:44;;;;;;;;;;;;;;;34.38;47.62;101365.05;106464;1271;22527;-53
2023/08/27 07:36:11;;;;;;;;;;;;;;;34.50;47.08;101361.48;106485;1275;25459;-49
2023/08/27 07:38:41;;;;;;;;;;;;;;;34.53;47.02;101360.06;106574;1275;25577;-50
2023/08/27 07:41:08;;;;;;;;;;;;;;;34.48;47.26;101360.51;106447;1279;25379;-49
2023/08/27 07:43:35;;;;;;;;;;;;;;;34.37;47.30;101358.45;106635;1272;25447;-49
2023/08/27 07:46:02;;;;;;;;;;;;;;;34.23;47.22;101356.80;106612;1264;25341;-51
2023/08/27 07:48:31;;;;;;;;;;;;;;;34.09;47.29;101355.16;106529;1262;25327;-49
2023/08/27 07:50:58;;;;;;;;;;;;;;;33.93;47.84;101353.36;106431;1271;25516;-50
2023/08/27 07:53:25;;;;;;;;;;;;;;;33.79;48.22;101358.36;106480;1276;25466;-50
2023/08/27 07:55:53;;;;;;;;;;;;;;;33.64;48.28;101352.91;106341;1277;25332;-51
2023/08/27 07:58:21;;;;;;;;;;;;;;;33.51;48.63;101353.61;106590;1271;22696;-51
2023/08/27 08:00:48;;;;;;;;;;;;;;;33.40;48.83;101353.54;106664;1275;25396;-49
2023/08/27 08:03:15;;;;;;;;;;;;;;;33.30;48.85;101356.12;106736;1270;24173;-49
2023/08/27 08:05:43;;;;;;;;;;;;;;;33.21;49.00;101356.25;106799;1270;25305;-51
2023/08/27 08:08:10;;;;;;;;;;;;;;;33.14;49.26;101360.61;106371;1276;25397;-52
2023/08/27 08:10:36;;;;;;;;;;;;;;;33.06;49.15;101359.66;106650;1260;25369;-51
2023/08/27 08:13:05;;;;;;;;;;;;;;;32.99;49.53;101352.85;106779;1270;25369;-50
2023/08/27 08:15:33;;;;;;;;;;;;;;;32.95;49.84;101352.37;106780;1268;25296;-50
2023/08/27 08:18:01;;;;;;;;;;;;;;;32.92;50.04;101351.29;106694;1262;25331;-49
2023/08/27 08:20:28;;;;;;;;;;;;;;;32.90;50.13;101348.41;106333;1278;25396;-51
2023/08/27 08:22:54;;;;;;;;;;;;;;;32.89;50.00;101349.27;106768;1265;25316;-49
2023/08/27 08:25:22;;;;;;;;;;;;;;;32.87;49.95;101345.11;106461;1265;25327;-50
2023/08/27 08:27:49;;;;;;;;;;;;;;;32.88;50.12;101344.09;106673;1272;25465;-49
2023/08/27 08:30:16;;;;;;;;;;;;;;;32.89;50.27;101349.77;106768;1272;22625;-49
2023/08/27 08:32:43;;;;;;;;;;;;;;;32.91;50.42;101350.84;106828;1266;25478;-50
2023/08/27 08:35:10;;;;;;;;;;;;;;;32.93;50.13;101348.66;106810;1270;25305;-52
2023/08/27 08:37:37;;;;;;;;;;;;;;;32.95;49.90;101347.66;106969;1269;25392;-49
2023/08/27 08:40:05;;;;;;;;;;;;;;;32.98;49.66;101346.88;106766;1273;25306;-53
2023/08/27 08:42:34;;;;;;;;;;;;;;;33.01;49.37;101343.33;106651;1272;25465;-50
2023/08/27 08:45:15;;;;;;;;;;;;;;;33.05;49.27;101341.24;106848;1263;25305;-52
2023/08/27 08:47:43;;;;;;;;;;;;;;;33.07;48.25;101340.98;106797;1262;25344;-50
2023/08/27 08:50:10;;;;;;;;;;;;;;;33.09;47.69;101338.86;106808;1272;25465;-49
2023/08/27 08:52:41;;;;;;;;;;;;;;;33.10;47.60;101338.77;106846;1274;25334;-51
2023/08/27 08:55:12;;;;;;;;;;;;;;;33.10;47.26;101334.45;106822;1271;25296;-49
2023/08/27 08:57:40;;;;;;;;;;;;;;;33.10;47.07;101335.36;106768;1270;25306;-48
2023/08/27 09:00:08;;;;;;;;;;;;;;;33.09;47.25;101326.42;106806;1266;25456;-51
2023/08/27 09:02:36;;;;;;;;;;;;;;;33.08;47.51;101324.54;106784;1270;25488;-49
2023/08/27 09:05:03;;;;;;;;;;;;;;;33.07;47.80;101320.70;106798;1255;25492;-50
2023/08/27 09:07:30;;;;;;;;;;;;;;;33.06;47.60;101309.83;106764;1266;25431;-54
2023/08/27 09:09:57;;;;;;;;;;;;;;;33.06;47.57;101308.45;106831;1268;25491;-49
2023/08/27 09:12:24;;;;;;;;;;;;;;;33.05;46.72;101296.89;106775;1269;25333;-49
2023/08/27 09:14:51;;;;;;;;;;;;;;;33.03;46.53;101292.92;106805;1272;25354;-49
2023/08/27 09:17:19;;;;;;;;;;;;;;;33.02;46.55;101289.13;106791;1273;25392;-52
2023/08/27 09:19:46;;;;;;;;;;;;;;;32.99;46.55;101284.91;106903;1270;25321;-49
2023/08/27 09:22:14;;;;;;;;;;;;;;;32.98;46.55;101287.02;106377;1277;25482;-49
2023/08/27 09:24:41;;;;;;;;;;;;;;;32.97;46.80;101290.73;106834;1264;25306;-55
2023/08/27 09:27:08;;;;;;;;;;;;;;;32.95;46.36;101297.20;106795;1270;25309;-49
2023/08/27 09:29:35;;;;;;;;;;;;;;;32.95;46.57;101301.55;106676;1256;25358;-50
2023/08/27 09:32:04;;;;;;;;;;;;;;;32.95;46.55;101299.54;106786;1266;24067;-49
2023/08/27 09:34:38;;;;;;;;;;;;;;;32.98;46.25;101293.13;106324;1266;22505;-50
2023/08/27 09:37:06;;;;;;;;;;;;;;;33.00;46.18;101294.12;106463;1264;22515;-50
2023/08/27 09:39:32;;;;;;;;;;;;;;;33.03;46.06;101289.64;106768;1267;24224;-53
2023/08/27 09:41:59;;;;;;;;;;;;;;;33.07;45.94;101291.74;106335;1274;24008;-55
2023/08/27 09:44:26;;;;;;;;;;;;;;;33.10;45.52;101288.08;106311;1276;25350;-50
2023/08/27 09:46:59;;;;;;;;;;;;;;;33.13;45.53;101287.20;106546;1267;25337;-50
2023/08/27 09:49:27;;;;;;;;;;;;;;;33.15;45.20;101286.41;106726;1270;25387;-52
2023/08/27 09:51:55;;;;;;;;;;;;;;;33.16;44.88;101285.75;106772;1272;25393;-50
2023/08/27 09:54:22;;;;;;;;;;;;;;;33.18;44.70;101280.66;106859;1270;25340;-50
2023/08/27 09:56:50;;;;;;;;;;;;;;;33.20;44.50;101282.55;106762;1276;25456;-50
2023/08/27 09:59:17;;;;;;;;;;;;;;;33.22;44.23;101285.92;106857;1257;25381;-51
2023/08/27 10:01:47;;;;;;;;;;;;;;;33.25;44.15;101290.48;106786;1254;22788;-50
2023/08/27 10:04:15;;;;;;;;;;;;;;;33.28;44.12;101287.33;106725;1270;25309;-50
2023/08/27 10:06:42;;;;;;;;;;;;;;;33.30;44.31;101283.98;106763;1274;25354;-50
2023/08/27 10:09:09;;;;;;;;;;;;;;;33.33;44.58;101279.17;106877;1264;25344;-49
2023/08/27 10:11:36;;;;;;;;;;;;;;;33.35;44.78;101276.80;106817;1261;25344;-55
2023/08/27 10:14:03;;;;;;;;;;;;;;;33.37;44.66;101278.02;106770;1270;22511;-54
2023/08/27 10:16:30;;;;;;;;;;;;;;;33.39;44.76;101282.67;106869;1270;25426;-49
2023/08/27 10:18:57;;;;;;;;;;;;;;;33.32;44.83;101285.98;106576;1261;25306;-49
2023/08/27 10:21:24;;;;;;;;;;;;;;;33.26;44.91;101288.26;106881;1254;23262;-49
2023/08/27 10:23:51;;;;;;;;;;;;;;;33.36;44.22;101286.05;106770;1257;25324;-49
2023/08/27 10:26:18;;;;;;;;;;;;;;;33.39;43.99;101286.03;106845;1270;23678;-49
2023/08/27 10:28:45;;;;;;;;;;;;;;;33.41;43.97;101284.61;106778;1270;25466;-48
2023/08/27 10:31:13;;;;;;;;;;;;;;;33.42;43.82;101281.90;106861;1264;25306;-50
2023/08/27 10:33:40;;;;;;;;;;;;;;;33.43;43.64;101280.35;106696;1267;24230;-49
2023/08/27 10:36:11;;;;;;;;;;;;;;;33.44;43.66;101277.73;106768;1267;25305;-49
2023/08/27 10:38:39;;;;;;;;;;;;;;;33.46;43.56;101275.56;106881;1268;25539;-49
2023/08/27 10:41:06;;;;;;;;;;;;;;;33.47;43.25;101276.73;106977;1264;22521;-49
2023/08/27 10:43:33;;;;;;;;;;;;;;;33.48;43.09;101275.67;106544;1270;25372;-51
2023/08/27 10:46:16;;;;;;;;;;;;;;;33.50;42.84;101275.02;106758;1270;25321;-50
2023/08/27 10:48:53;;;;;;;;;;;;;;;33.51;42.50;101275.36;106831;1266;22528;-49
2023/08/27 10:51:23;;;;;;;;;;;;;;;33.54;42.62;101274.11;106796;1270;25343;-53
2023/08/27 10:53:50;;;;;;;;;;;;;;;33.56;42.85;101274.63;106614;1263;25316;-48
2023/08/27 10:56:32;;;;;;;;;;;;;;;33.57;43.18;101270.17;106800;1260;25466;-49
2023/08/27 10:59:00;;;;;;;;;;;;;;;33.58;43.11;101269.52;106840;1261;25466;-49
2023/08/27 11:01:27;;;;;;;;;;;;;;;33.60;42.77;101267.06;106851;1263;25321;-52
2023/08/27 11:03:57;;;;;;;;;;;;;;;33.60;42.78;101263.96;106876;1264;25386;-48
2023/08/27 11:06:46;;;;;;;;;;;;;;;33.60;42.87;101262.64;106843;1264;22647;-49
2023/08/27 11:09:14;;;;;;;;;;;;;;;33.61;42.96;101259.20;106767;1267;25306;-52
2023/08/27 11:12:03;;;;;;;;;;;;;;;33.60;42.98;101257.08;106811;1257;24436;-49
2023/08/27 11:14:35;;;;;;;;;;;;;;;33.61;43.33;101258.63;106694;1270;25372;-49
2023/08/27 11:17:03;;;;;;;;;;;;;;;33.62;43.40;101255.82;106811;1257;25305;-51
2023/08/27 11:19:31;;;;;;;;;;;;;;;33.62;43.34;101253.10;106662;1267;25366;-54
2023/08/27 11:22:10;;;;;;;;;;;;;;;33.62;43.67;101250.42;106509;1264;25413;-48
2023/08/27 11:24:42;;;;;;;;;;;;;;;33.61;43.58;101249.38;106627;1254;25288;-48
2023/08/27 11:27:09;;;;;;;;;;;;;;;33.62;43.69;101249.02;106651;1267;25213;-50
2023/08/27 11:29:42;;;;;;;;;;;;;;;33.61;43.84;101244.95;106926;1259;25392;-49
2023/08/27 11:32:09;;;;;;;;;;;;;;;33.61;44.05;101238.16;106784;1270;25325;-49
2023/08/27 11:34:38;;;;;;;;;;;;;;;33.60;43.90;101234.23;106714;1268;25296;-51
2023/08/27 11:37:05;;;;;;;;;;;;;;;33.59;43.87;101227.77;106933;1269;22636;-48
2023/08/27 11:39:35;;;;;;;;;;;;;;;33.57;44.06;101223.79;106790;1254;24006;-51
2023/08/27 11:42:02;;;;;;;;;;;;;;;33.56;43.96;101222.34;106825;1254;25333;-50
2023/08/27 11:44:29;;;;;;;;;;;;;;;33.54;43.99;101218.19;106778;1257;25334;-48
2023/08/27 11:47:05;;;;;;;;;;;;;;;33.52;44.11;101217.69;106725;1261;25315;-52
2023/08/27 11:49:32;;;;;;;;;;;;;;;33.51;44.21;101216.45;106813;1254;25491;-50
2023/08/27 11:51:59;;;;;;;;;;;;;;;33.49;44.32;101216.06;106878;1270;25359;-50
2023/08/27 11:54:32;;;;;;;;;;;;;;;33.48;44.56;101214.93;106739;1273;25358;-49
2023/08/27 11:57:02;;;;;;;;;;;;;;;33.46;44.83;101212.73;106870;1263;25333;-51
2023/08/27 11:59:29;;;;;;;;;;;;;;;33.45;45.20;101208.00;106785;1270;25334;-48
2023/08/27 12:01:59;;;;;;;;;;;;;;;33.44;45.23;101208.48;106842;1267;25334;-49
2023/08/27 12:04:27;;;;;;;;;;;;;;;33.44;45.16;101207.64;106815;1264;25466;-48
2023/08/27 12:06:57;;;;;;;;;;;;;;;33.43;45.09;101207.16;106851;1267;23218;-49
2023/08/27 12:09:26;;;;;;;;;;;;;;;33.43;45.17;101209.40;106779;1275;22635;-52
2023/08/27 12:11:53;;;;;;;;;;;;;;;33.43;45.51;101207.58;106776;1269;22635;-54
2023/08/27 12:14:25;;;;;;;;;;;;;;;33.42;45.72;101209.26;106831;1260;25320;-49
2023/08/27 12:16:52;;;;;;;;;;;;;;;33.42;45.88;101207.38;106919;1270;25462;-50
2023/08/27 12:19:19;;;;;;;;;;;;;;;33.42;45.79;101206.42;106795;1266;22620;-52
2023/08/27 12:21:50;;;;;;;;;;;;;;;33.43;45.79;101202.71;106829;1256;23872;-49
2023/08/27 12:24:36;;;;;;;;;;;;;;;33.43;45.78;101201.64;106733;1266;25317;-49
2023/08/27 12:27:03;;;;;;;;;;;;;;;33.44;45.81;101198.64;106879;1267;25374;-52
2023/08/27 12:29:32;;;;;;;;;;;;;;;33.45;46.02;101194.85;106766;1270;25452;-49